createdAt,value
2022-10-20T00:00:50.778Z,0.00
2022-10-20T00:01:50.726Z,0.00
2022-10-20T00:02:50.818Z,0.00
2022-10-20T00:03:50.687Z,0.00
2022-10-20T00:04:50.695Z,0.00
2022-10-20T00:05:50.665Z,0.00
2022-10-20T00:06:50.686Z,0.00
2022-10-20T00:07:50.644Z,0.00
2022-10-20T00:08:50.675Z,0.00
2022-10-20T00:09:50.625Z,0.00
2022-10-20T00:10:50.630Z,0.00
2022-10-20T00:11:50.604Z,0.00
2022-10-20T00:12:50.647Z,0.00
2022-10-20T00:13:50.584Z,0.00
2022-10-20T00:14:50.580Z,0.00
2022-10-20T00:15:50.553Z,0.00
2022-10-20T00:16:50.544Z,0.00
2022-10-20T00:17:50.552Z,0.00
2022-10-20T00:18:50.558Z,0.00
2022-10-20T00:19:50.506Z,0.00
2022-10-20T00:20:50.503Z,0.00
2022-10-20T00:21:50.483Z,0.00
2022-10-20T00:22:50.483Z,0.00
2022-10-20T00:23:50.492Z,0.00
2022-10-20T00:24:50.460Z,0.00
2022-10-20T00:25:50.444Z,0.00
2022-10-20T00:26:50.434Z,0.00
2022-10-20T00:27:50.423Z,0.00
2022-10-20T00:28:50.406Z,0.00
2022-10-20T00:29:50.413Z,0.00
2022-10-20T00:30:50.389Z,0.00
2022-10-20T00:31:50.373Z,0.00
2022-10-20T00:32:50.365Z,0.00
2022-10-20T00:33:50.376Z,0.00
2022-10-20T00:34:50.373Z,0.00
2022-10-20T00:35:50.339Z,0.00
2022-10-20T00:36:51.413Z,0.00
2022-10-20T00:37:50.306Z,0.00
2022-10-20T00:38:50.303Z,0.00
2022-10-20T00:39:50.298Z,0.00
2022-10-20T00:40:50.317Z,0.00
2022-10-20T00:41:50.256Z,0.00
2022-10-20T00:42:50.271Z,0.00
2022-10-20T00:43:50.244Z,0.00
2022-10-20T00:44:50.723Z,0.00
2022-10-20T00:45:50.232Z,0.00
2022-10-20T00:46:50.479Z,0.00
2022-10-20T00:47:50.216Z,0.00
2022-10-20T00:48:50.190Z,0.00
2022-10-20T00:49:50.175Z,0.00
2022-10-20T00:50:50.165Z,0.00
2022-10-20T00:51:50.174Z,0.00
2022-10-20T00:52:50.142Z,0.00
2022-10-20T00:53:50.123Z,0.00
2022-10-20T00:54:50.122Z,0.00
2022-10-20T00:55:50.113Z,0.00
2022-10-20T00:56:50.161Z,0.00
2022-10-20T00:57:50.144Z,0.00
2022-10-20T00:58:50.110Z,0.00
2022-10-20T00:59:50.065Z,0.00
2022-10-20T01:00:50.056Z,0.00
2022-10-20T01:01:50.140Z,0.00
2022-10-20T01:02:50.034Z,0.00
2022-10-20T01:03:50.072Z,0.00
2022-10-20T01:04:50.002Z,0.00
2022-10-20T01:05:50.015Z,0.00
2022-10-20T01:06:50.001Z,0.00
2022-10-20T01:07:49.973Z,0.00
2022-10-20T01:08:50.008Z,0.00
2022-10-20T01:09:49.974Z,0.00
2022-10-20T01:10:49.946Z,0.00
2022-10-20T01:11:49.933Z,0.00
2022-10-20T01:12:49.912Z,0.00
2022-10-20T01:13:49.902Z,0.00
2022-10-20T01:14:49.893Z,0.00
2022-10-20T01:15:49.927Z,0.00
2022-10-20T01:16:49.872Z,0.00
2022-10-20T01:17:49.865Z,0.00
2022-10-20T01:18:49.857Z,0.00
2022-10-20T01:19:49.832Z,0.00
2022-10-20T01:20:49.841Z,0.00
2022-10-20T01:21:49.834Z,0.00
2022-10-20T01:22:49.817Z,0.00
2022-10-20T01:23:49.804Z,0.00
2022-10-20T01:24:49.792Z,0.00
2022-10-20T01:25:49.784Z,0.00
2022-10-20T01:26:49.796Z,0.00
2022-10-20T01:27:49.754Z,0.00
2022-10-20T01:28:49.741Z,0.00
2022-10-20T01:29:49.722Z,0.00
2022-10-20T01:30:49.724Z,0.00
2022-10-20T01:31:49.693Z,0.00
2022-10-20T01:32:49.731Z,0.00
2022-10-20T01:33:49.685Z,0.00
2022-10-20T01:34:52.180Z,0.00
2022-10-20T01:35:49.673Z,0.00
2022-10-20T01:36:49.650Z,0.00
2022-10-20T01:37:50.827Z,0.00
2022-10-20T01:38:49.658Z,0.00
2022-10-20T01:39:49.612Z,0.00
2022-10-20T01:40:49.605Z,0.00
2022-10-20T01:41:49.600Z,0.00
2022-10-20T01:42:49.581Z,0.00
2022-10-20T01:43:49.622Z,0.00
2022-10-20T01:44:49.561Z,0.00
2022-10-20T01:45:49.546Z,0.00
2022-10-20T01:46:49.542Z,0.00
2022-10-20T01:47:49.523Z,0.00
2022-10-20T01:48:49.517Z,0.00
2022-10-20T01:49:49.530Z,0.00
2022-10-20T01:50:49.506Z,0.00
2022-10-20T01:51:49.491Z,0.00
2022-10-20T01:52:49.473Z,0.00
2022-10-20T01:53:49.462Z,0.00
2022-10-20T01:54:49.441Z,0.00
2022-10-20T01:55:49.459Z,0.00
2022-10-20T01:56:49.421Z,0.00
2022-10-20T01:57:49.415Z,0.00
2022-10-20T01:58:49.401Z,0.00
2022-10-20T01:59:49.389Z,0.00
2022-10-20T02:00:49.417Z,0.00
2022-10-20T02:01:49.473Z,0.00
2022-10-20T02:02:49.354Z,0.00
2022-10-20T02:03:49.345Z,0.00
2022-10-20T02:04:49.333Z,0.00
2022-10-20T02:05:49.351Z,0.00
2022-10-20T02:06:49.323Z,0.00
2022-10-20T02:07:49.311Z,0.00
2022-10-20T02:08:49.356Z,0.00
2022-10-20T02:09:49.318Z,0.00
2022-10-20T02:10:49.269Z,0.00
2022-10-20T02:11:49.252Z,0.00
2022-10-20T02:12:49.261Z,0.00
2022-10-20T02:13:49.240Z,0.00
2022-10-20T02:14:49.221Z,0.00
2022-10-20T02:15:49.208Z,0.00
2022-10-20T02:16:49.201Z,0.00
2022-10-20T02:17:49.183Z,0.00
2022-10-20T02:18:49.346Z,0.00
2022-10-20T02:19:49.174Z,0.00
2022-10-20T02:20:49.169Z,0.00
2022-10-20T02:21:49.144Z,0.00
2022-10-20T02:22:49.131Z,0.00
2022-10-20T02:23:49.164Z,0.00
2022-10-20T02:24:49.130Z,0.00
2022-10-20T02:25:49.113Z,0.00
2022-10-20T02:26:49.100Z,0.00
2022-10-20T02:27:49.106Z,0.00
2022-10-20T02:28:49.069Z,0.00
2022-10-20T02:29:49.089Z,0.00
2022-10-20T02:30:49.051Z,0.00
2022-10-20T02:31:49.030Z,0.00
2022-10-20T02:32:49.029Z,0.00
2022-10-20T02:33:49.023Z,0.00
2022-10-20T02:34:49.000Z,0.00
2022-10-20T02:35:49.000Z,0.00
2022-10-20T02:36:48.980Z,0.00
2022-10-20T02:37:48.961Z,0.00
2022-10-20T02:38:48.952Z,0.00
2022-10-20T02:39:48.939Z,0.00
2022-10-20T02:40:48.950Z,0.00
2022-10-20T02:41:48.920Z,0.00
2022-10-20T02:42:48.912Z,0.00
2022-10-20T02:43:48.903Z,0.00
2022-10-20T02:44:48.891Z,0.00
2022-10-20T02:45:48.869Z,0.00
2022-10-20T02:46:48.943Z,0.00
2022-10-20T02:47:48.849Z,0.00
2022-10-20T02:48:48.840Z,0.00
2022-10-20T02:49:48.827Z,0.00
2022-10-20T02:50:48.822Z,0.00
2022-10-20T02:51:48.799Z,0.00
2022-10-20T02:52:48.818Z,0.00
2022-10-20T02:53:48.779Z,0.00
2022-10-20T02:54:48.771Z,0.00
2022-10-20T02:55:48.750Z,0.00
2022-10-20T02:56:48.749Z,0.00
2022-10-20T02:57:48.750Z,0.00
2022-10-20T02:58:48.727Z,0.00
2022-10-20T02:59:48.717Z,0.00
2022-10-20T03:00:48.710Z,0.00
2022-10-20T03:01:48.742Z,0.00
2022-10-20T03:02:48.678Z,0.00
2022-10-20T03:03:48.739Z,0.00
2022-10-20T03:04:48.660Z,0.00
2022-10-20T03:05:48.647Z,0.00
2022-10-20T03:06:48.639Z,0.00
2022-10-20T03:07:48.628Z,0.00
2022-10-20T03:08:48.649Z,0.00
2022-10-20T03:09:48.734Z,0.00
2022-10-20T03:10:48.592Z,0.00
2022-10-20T03:11:48.578Z,0.00
2022-10-20T03:12:48.579Z,0.00
2022-10-20T03:13:48.556Z,0.00
2022-10-20T03:14:48.547Z,0.00
2022-10-20T03:15:48.560Z,0.00
2022-10-20T03:16:48.522Z,0.00
2022-10-20T03:17:48.511Z,0.00
2022-10-20T03:18:48.502Z,0.00
2022-10-20T03:19:48.487Z,0.00
2022-10-20T03:20:48.499Z,0.00
2022-10-20T03:21:48.476Z,0.00
2022-10-20T03:22:48.450Z,0.00
2022-10-20T03:23:48.448Z,0.00
2022-10-20T03:24:48.429Z,0.00
2022-10-20T03:25:48.431Z,0.00
2022-10-20T03:26:48.422Z,0.00
2022-10-20T03:27:48.398Z,0.00
2022-10-20T03:28:48.382Z,0.00
2022-10-20T03:29:48.376Z,0.00
2022-10-20T03:30:48.357Z,0.00
2022-10-20T03:32:48.347Z,0.00
2022-10-20T03:33:48.332Z,0.00
2022-10-20T03:34:48.311Z,0.00
2022-10-20T03:35:48.312Z,0.00
2022-10-20T03:36:48.288Z,0.00
2022-10-20T03:37:48.300Z,0.00
2022-10-20T03:38:48.257Z,0.00
2022-10-20T03:39:48.248Z,0.00
2022-10-20T03:40:48.250Z,0.00
2022-10-20T03:41:48.238Z,0.00
2022-10-20T03:42:48.236Z,0.00
2022-10-20T03:43:48.227Z,0.00
2022-10-20T03:44:48.212Z,0.00
2022-10-20T03:45:48.187Z,0.00
2022-10-20T03:46:48.179Z,0.00
2022-10-20T03:47:48.169Z,0.00
2022-10-20T03:48:48.197Z,0.00
2022-10-20T03:49:48.146Z,0.00
2022-10-20T03:50:48.135Z,0.00
2022-10-20T03:51:48.115Z,0.00
2022-10-20T03:52:48.106Z,0.00
2022-10-20T03:53:48.088Z,0.00
2022-10-20T03:54:48.128Z,0.00
2022-10-20T03:55:48.078Z,0.00
2022-10-20T03:56:48.059Z,0.00
2022-10-20T03:57:48.046Z,0.00
2022-10-20T03:58:48.038Z,0.00
2022-10-20T03:59:48.026Z,0.00
2022-10-20T04:00:48.037Z,0.00
2022-10-20T04:01:48.054Z,0.00
2022-10-20T04:02:55.032Z,0.00
2022-10-20T04:03:47.979Z,0.00
2022-10-20T04:04:47.961Z,0.00
2022-10-20T04:05:47.960Z,0.00
2022-10-20T04:06:47.960Z,0.00
2022-10-20T04:07:47.931Z,0.00
2022-10-20T04:08:47.984Z,0.00
2022-10-20T04:09:47.907Z,0.00
2022-10-20T04:10:47.890Z,0.00
2022-10-20T04:11:47.880Z,0.00
2022-10-20T04:12:47.889Z,0.00
2022-10-20T04:13:47.860Z,0.00
2022-10-20T04:14:47.849Z,0.00
2022-10-20T04:15:47.839Z,0.00
2022-10-20T04:16:47.820Z,0.00
2022-10-20T04:17:47.810Z,0.00
2022-10-20T04:18:47.817Z,0.00
2022-10-20T04:19:47.790Z,0.00
2022-10-20T04:20:47.769Z,0.00
2022-10-20T04:21:47.769Z,0.00
2022-10-20T04:22:47.750Z,0.00
2022-10-20T04:23:47.769Z,0.00
2022-10-20T04:24:47.730Z,0.00
2022-10-20T04:25:47.727Z,0.00
2022-10-20T04:26:47.746Z,0.00
2022-10-20T04:27:47.699Z,0.00
2022-10-20T04:28:47.686Z,0.00
2022-10-20T04:29:47.699Z,0.00
2022-10-20T04:30:47.666Z,0.00
2022-10-20T04:31:49.177Z,0.00
2022-10-20T04:32:47.639Z,0.00
2022-10-20T04:33:47.630Z,0.00
2022-10-20T04:34:47.617Z,0.00
2022-10-20T04:35:47.702Z,0.00
2022-10-20T04:36:47.595Z,0.00
2022-10-20T04:37:47.579Z,0.00
2022-10-20T04:38:47.570Z,0.00
2022-10-20T04:39:47.560Z,0.00
2022-10-20T04:40:47.549Z,0.00
2022-10-20T04:41:47.569Z,0.00
2022-10-20T04:42:47.529Z,0.00
2022-10-20T04:43:47.519Z,0.00
2022-10-20T04:44:47.538Z,0.00
2022-10-20T04:45:47.496Z,0.00
2022-10-20T04:46:47.479Z,0.00
2022-10-20T04:47:47.488Z,0.00
2022-10-20T04:48:47.461Z,0.00
2022-10-20T04:49:47.451Z,0.00
2022-10-20T04:50:47.438Z,0.00
2022-10-20T04:51:47.427Z,0.00
2022-10-20T04:52:47.460Z,0.00
2022-10-20T04:53:47.408Z,0.00
2022-10-20T04:54:47.388Z,0.00
2022-10-20T04:55:47.379Z,0.00
2022-10-20T04:56:47.367Z,0.00
2022-10-20T04:57:47.368Z,0.00
2022-10-20T04:58:47.372Z,0.00
2022-10-20T04:59:47.340Z,0.00
2022-10-20T05:00:47.326Z,0.00
2022-10-20T05:01:47.342Z,0.00
2022-10-20T05:02:47.306Z,0.00
2022-10-20T05:03:47.289Z,0.00
2022-10-20T05:04:47.299Z,0.00
2022-10-20T05:05:47.267Z,0.00
2022-10-20T05:06:47.259Z,0.00
2022-10-20T05:07:47.248Z,0.00
2022-10-20T05:08:47.290Z,0.00
2022-10-20T05:09:47.257Z,0.00
2022-10-20T05:10:47.247Z,0.00
2022-10-20T05:11:47.205Z,0.00
2022-10-20T05:12:47.187Z,0.00
2022-10-20T05:13:47.178Z,0.00
2022-10-20T05:14:47.161Z,0.00
2022-10-20T05:15:47.158Z,0.00
2022-10-20T05:16:47.155Z,0.00
2022-10-20T05:17:47.128Z,0.00
2022-10-20T05:18:47.118Z,4.00
2022-10-20T05:19:47.107Z,0.00
2022-10-20T05:21:07.419Z,0.00
2022-10-20T05:21:48.110Z,0.00
2022-10-20T05:22:47.069Z,4.00
2022-10-20T05:23:47.070Z,4.00
2022-10-20T05:24:47.056Z,0.00
2022-10-20T05:25:47.038Z,4.00
2022-10-20T05:26:47.034Z,4.00
2022-10-20T05:27:47.037Z,4.00
2022-10-20T05:28:47.011Z,4.00
2022-10-20T05:29:47.008Z,8.00
2022-10-20T05:30:46.989Z,4.00
2022-10-20T05:31:46.978Z,8.00
2022-10-20T05:32:46.968Z,8.00
2022-10-20T05:33:46.968Z,16.00
2022-10-20T05:34:46.937Z,12.00
2022-10-20T05:35:46.937Z,16.00
2022-10-20T05:36:46.907Z,24.00
2022-10-20T05:37:46.897Z,28.00
2022-10-20T05:38:46.886Z,32.00
2022-10-20T05:40:46.865Z,48.00
2022-10-20T05:41:46.865Z,56.00
2022-10-20T05:42:46.844Z,68.00
2022-10-20T05:43:46.835Z,80.00
2022-10-20T05:44:46.817Z,92.00
2022-10-20T05:45:46.827Z,104.00
2022-10-20T05:46:46.795Z,124.00
2022-10-20T05:47:46.789Z,140.00
2022-10-20T05:48:46.780Z,152.00
2022-10-20T05:49:46.765Z,164.00
2022-10-20T05:50:46.748Z,164.00
2022-10-20T05:51:46.806Z,176.00
2022-10-20T05:52:46.726Z,184.00
2022-10-20T05:53:46.715Z,196.00
2022-10-20T05:54:46.705Z,208.00
2022-10-20T05:55:46.705Z,220.00
2022-10-20T05:56:46.677Z,236.00
2022-10-20T05:57:46.696Z,260.00
2022-10-20T05:58:46.656Z,288.00
2022-10-20T05:59:46.658Z,316.00
2022-10-20T06:00:46.664Z,348.00
2022-10-20T06:01:46.628Z,388.00
2022-10-20T06:02:46.626Z,428.00
2022-10-20T06:03:46.606Z,472.00
2022-10-20T06:04:46.585Z,520.00
2022-10-20T06:05:46.585Z,576.00
2022-10-20T06:06:46.566Z,632.00
2022-10-20T06:07:46.565Z,688.00
2022-10-20T06:08:46.603Z,740.00
2022-10-20T06:09:46.538Z,796.00
2022-10-20T06:10:46.518Z,848.00
2022-10-20T06:11:46.517Z,908.00
2022-10-20T06:12:46.494Z,980.00
2022-10-20T06:13:48.653Z,1060.00
2022-10-20T06:14:47.477Z,1144.00
2022-10-20T06:15:46.465Z,1244.00
2022-10-20T06:16:46.454Z,1336.00
2022-10-20T06:17:46.445Z,1424.00
2022-10-20T06:18:46.430Z,1500.00
2022-10-20T06:19:46.445Z,1572.00
2022-10-20T06:20:46.410Z,1640.00
2022-10-20T06:21:48.078Z,1712.00
2022-10-20T06:22:46.386Z,1780.00
2022-10-20T06:23:46.375Z,1856.00
2022-10-20T06:24:46.364Z,1940.00
2022-10-20T06:25:46.375Z,2028.00
2022-10-20T06:26:46.342Z,2124.00
2022-10-20T06:27:46.334Z,2236.00
2022-10-20T06:28:46.313Z,2352.00
2022-10-20T06:29:46.315Z,2504.00
2022-10-20T06:30:46.295Z,2704.00
2022-10-20T06:31:46.309Z,2900.00
2022-10-20T06:32:46.275Z,2956.00
2022-10-20T06:33:46.266Z,3084.00
2022-10-20T06:34:46.246Z,3352.00
2022-10-20T06:35:46.243Z,3600.00
2022-10-20T06:36:46.226Z,3684.00
2022-10-20T06:37:46.244Z,3708.00
2022-10-20T06:38:46.214Z,3560.00
2022-10-20T06:39:46.205Z,3508.00
2022-10-20T06:40:46.184Z,3536.00
2022-10-20T06:41:46.181Z,3660.00
2022-10-20T06:42:46.196Z,3892.00
2022-10-20T06:43:46.179Z,3900.00
2022-10-20T06:44:46.140Z,4024.00
2022-10-20T06:45:46.132Z,4408.00
2022-10-20T06:46:46.118Z,4620.00
2022-10-20T06:47:46.119Z,4540.00
2022-10-20T06:48:46.094Z,4500.00
2022-10-20T06:49:46.112Z,4552.00
2022-10-20T06:50:46.074Z,4728.00
2022-10-20T06:51:46.157Z,4896.00
2022-10-20T06:52:46.054Z,4644.00
2022-10-20T06:53:46.968Z,4552.00
2022-10-20T06:54:46.053Z,4532.00
2022-10-20T06:55:46.025Z,4536.00
2022-10-20T06:56:46.011Z,4596.00
2022-10-20T06:57:45.993Z,4676.00
2022-10-20T06:58:45.981Z,4784.00
2022-10-20T06:59:45.973Z,4908.00
2022-10-20T07:00:45.974Z,5012.00
2022-10-20T07:01:46.060Z,4984.00
2022-10-20T07:02:45.933Z,4936.00
2022-10-20T07:03:45.934Z,5096.00
2022-10-20T07:04:45.914Z,5336.00
2022-10-20T07:05:45.926Z,5312.00
2022-10-20T07:06:45.891Z,5312.00
2022-10-20T07:07:45.883Z,5344.00
2022-10-20T07:08:45.943Z,5432.00
2022-10-20T07:09:45.863Z,5544.00
2022-10-20T07:10:45.848Z,5668.00
2022-10-20T07:11:45.862Z,5804.00
2022-10-20T07:12:45.826Z,5960.00
2022-10-20T07:13:45.814Z,6100.00
2022-10-20T07:14:45.802Z,6232.00
2022-10-20T07:15:45.793Z,6348.00
2022-10-20T07:16:45.774Z,6424.00
2022-10-20T07:17:45.784Z,6440.00
2022-10-20T07:18:45.768Z,6368.00
2022-10-20T07:19:45.750Z,6292.00
2022-10-20T07:20:45.733Z,6224.00
2022-10-20T07:21:46.005Z,6172.00
2022-10-20T07:22:45.734Z,6112.00
2022-10-20T07:23:45.704Z,6048.00
2022-10-20T07:24:45.694Z,5972.00
2022-10-20T07:25:45.676Z,5912.00
2022-10-20T07:26:45.665Z,5856.00
2022-10-20T07:27:45.655Z,5796.00
2022-10-20T07:28:45.663Z,5764.00
2022-10-20T07:29:45.634Z,5772.00
2022-10-20T07:30:45.623Z,5764.00
2022-10-20T07:31:45.614Z,5780.00
2022-10-20T07:32:45.605Z,5824.00
2022-10-20T07:33:56.528Z,5876.00
2022-10-20T07:34:46.576Z,5960.00
2022-10-20T07:35:45.564Z,6108.00
2022-10-20T07:36:45.553Z,6312.00
2022-10-20T07:37:45.541Z,6544.00
2022-10-20T07:38:45.538Z,6708.00
2022-10-20T07:39:45.554Z,6792.00
2022-10-20T07:40:45.514Z,6908.00
2022-10-20T07:41:45.494Z,7040.00
2022-10-20T07:42:45.485Z,7188.00
2022-10-20T07:43:45.475Z,7320.00
2022-10-20T07:44:45.463Z,7452.00
2022-10-20T07:45:45.473Z,7580.00
2022-10-20T07:46:45.451Z,7776.00
2022-10-20T07:47:47.566Z,8068.00
2022-10-20T07:48:45.422Z,8436.00
2022-10-20T07:49:45.536Z,8764.00
2022-10-20T07:50:45.402Z,8972.00
2022-10-20T07:51:45.404Z,9416.00
2022-10-20T07:52:45.375Z,9568.00
2022-10-20T07:53:45.362Z,10084.00
2022-10-20T07:54:45.355Z,10732.00
2022-10-20T07:55:45.335Z,11372.00
2022-10-20T07:56:45.326Z,12816.00
2022-10-20T07:57:45.325Z,12980.00
2022-10-20T07:58:45.305Z,14160.00
2022-10-20T07:59:45.295Z,16128.00
2022-10-20T08:00:45.295Z,16576.00
2022-10-20T08:01:45.343Z,19200.00
2022-10-20T08:02:45.286Z,19680.00
2022-10-20T08:03:45.245Z,17664.00
2022-10-20T08:04:45.234Z,17600.00
2022-10-20T08:05:45.225Z,14976.00
2022-10-20T08:06:45.226Z,15124.00
2022-10-20T08:07:45.203Z,15208.00
2022-10-20T08:08:45.235Z,16704.00
2022-10-20T08:10:45.174Z,13340.00
2022-10-20T08:11:45.162Z,13144.00
2022-10-20T08:12:45.144Z,12456.00
2022-10-20T08:13:45.135Z,13168.00
2022-10-20T08:14:45.267Z,12216.00
2022-10-20T08:15:47.482Z,11572.00
2022-10-20T08:16:45.134Z,11760.00
2022-10-20T08:17:45.096Z,11896.00
2022-10-20T08:18:47.686Z,11588.00
2022-10-20T08:19:47.448Z,11196.00
2022-10-20T08:20:45.805Z,12252.00
2022-10-20T08:21:45.045Z,14504.00
2022-10-20T08:22:45.036Z,13756.00
2022-10-20T08:23:45.028Z,12224.00
2022-10-20T08:24:45.015Z,11440.00
2022-10-20T08:25:45.005Z,10920.00
2022-10-20T08:26:45.007Z,10568.00
2022-10-20T08:27:45.045Z,9960.00
2022-10-20T08:28:44.966Z,9420.00
2022-10-20T08:29:50.889Z,9368.00
2022-10-20T08:30:45.947Z,9448.00
2022-10-20T08:31:44.957Z,10564.00
2022-10-20T08:32:44.925Z,9720.00
2022-10-20T08:33:48.819Z,8876.00
2022-10-20T08:34:45.908Z,8128.00
2022-10-20T08:35:44.886Z,7804.00
2022-10-20T08:36:44.884Z,8000.00
2022-10-20T08:37:44.878Z,8156.00
2022-10-20T08:38:44.860Z,8420.00
2022-10-20T08:39:44.846Z,7932.00
2022-10-20T08:40:44.845Z,7196.00
2022-10-20T08:42:06.837Z,6700.00
2022-10-20T08:42:45.836Z,6808.00
2022-10-20T08:43:44.806Z,6960.00
2022-10-20T08:44:44.823Z,7196.00
2022-10-20T08:45:44.797Z,7512.00
2022-10-20T08:46:44.767Z,7972.00
2022-10-20T08:47:44.756Z,8224.00
2022-10-20T08:48:44.775Z,8152.00
2022-10-20T08:49:44.737Z,8284.00
2022-10-20T08:50:44.739Z,8236.00
2022-10-20T08:51:44.715Z,7940.00
2022-10-20T08:52:44.707Z,7924.00
2022-10-20T08:53:44.687Z,7744.00
2022-10-20T08:54:44.944Z,7776.00
2022-10-20T08:55:44.690Z,7736.00
2022-10-20T08:56:44.670Z,7712.00
2022-10-20T08:57:44.648Z,7768.00
2022-10-20T08:58:44.651Z,7604.00
2022-10-20T08:59:44.619Z,7452.00
2022-10-20T09:00:44.630Z,7408.00
2022-10-20T09:01:44.674Z,7760.00
2022-10-20T09:02:44.598Z,8036.00
2022-10-20T09:03:44.576Z,7984.00
2022-10-20T09:04:44.573Z,8028.00
2022-10-20T09:05:45.306Z,8104.00
2022-10-20T09:06:44.547Z,8232.00
2022-10-20T09:07:44.537Z,8336.00
2022-10-20T09:08:44.546Z,8112.00
2022-10-20T09:09:44.508Z,7944.00
2022-10-20T09:10:44.497Z,8000.00
2022-10-20T09:11:44.560Z,8308.00
2022-10-20T09:12:44.497Z,8296.00
2022-10-20T09:13:44.500Z,8108.00
2022-10-20T09:14:44.457Z,8092.00
2022-10-20T09:15:44.449Z,8428.00
2022-10-20T09:16:59.361Z,8716.00
2022-10-20T09:17:45.440Z,8852.00
2022-10-20T09:18:44.418Z,8332.00
2022-10-20T09:19:44.397Z,7736.00
2022-10-20T09:20:44.444Z,7132.00
2022-10-20T09:21:44.381Z,6592.00
2022-10-20T09:22:44.367Z,6276.00
2022-10-20T09:23:44.425Z,6612.00
2022-10-20T09:24:44.417Z,6912.00
2022-10-20T09:25:44.341Z,7056.00
2022-10-20T09:26:58.283Z,6928.00
2022-10-20T09:27:45.411Z,6776.00
2022-10-20T09:29:08.626Z,6668.00
2022-10-20T09:29:45.288Z,6556.00
2022-10-20T09:30:44.278Z,6140.00
2022-10-20T09:31:44.260Z,6504.00
2022-10-20T09:32:47.016Z,6376.00
2022-10-20T09:33:44.251Z,6356.00
2022-10-20T09:34:44.248Z,6560.00
2022-10-20T09:35:44.223Z,6804.00
2022-10-20T09:36:44.228Z,7024.00
2022-10-20T09:37:44.197Z,6844.00
2022-10-20T09:38:44.187Z,6332.00
2022-10-20T09:39:44.185Z,5944.00
2022-10-20T09:40:44.188Z,6004.00
2022-10-20T09:41:44.160Z,5900.00
2022-10-20T09:42:44.139Z,5824.00
2022-10-20T09:43:44.128Z,5752.00
2022-10-20T09:44:44.118Z,5704.00
2022-10-20T09:45:44.109Z,5632.00
2022-10-20T09:46:44.118Z,5692.00
2022-10-20T09:47:44.087Z,5560.00
2022-10-20T09:48:44.078Z,5884.00
2022-10-20T09:49:44.060Z,6176.00
2022-10-20T09:50:44.052Z,6248.00
2022-10-20T09:51:44.078Z,6272.00
2022-10-20T09:52:44.050Z,6408.00
2022-10-20T09:53:44.009Z,6692.00
2022-10-20T09:54:44.009Z,7412.00
2022-10-20T09:55:44.017Z,7788.00
2022-10-20T09:56:43.989Z,8004.00
2022-10-20T09:57:44.052Z,8320.00
2022-10-20T09:58:43.980Z,8840.00
2022-10-20T09:59:43.949Z,9340.00
2022-10-20T10:00:44.031Z,9512.00
2022-10-20T10:01:43.931Z,9456.00
2022-10-20T10:02:43.927Z,9468.00
2022-10-20T10:03:51.024Z,9360.00
2022-10-20T10:04:46.515Z,9352.00
2022-10-20T10:05:43.884Z,9736.00
2022-10-20T10:06:43.876Z,10408.00
2022-10-20T10:07:43.864Z,11148.00
2022-10-20T10:08:43.925Z,11720.00
2022-10-20T10:09:43.875Z,12020.00
2022-10-20T10:10:43.825Z,12012.00
2022-10-20T10:11:43.815Z,12108.00
2022-10-20T10:12:43.818Z,12424.00
2022-10-20T10:13:43.794Z,12980.00
2022-10-20T10:14:43.785Z,12872.00
2022-10-20T10:15:43.787Z,13400.00
2022-10-20T10:16:43.757Z,13268.00
2022-10-20T10:17:43.745Z,13648.00
2022-10-20T10:18:48.276Z,13552.00
2022-10-20T10:19:44.725Z,13232.00
2022-10-20T10:20:43.736Z,13824.00
2022-10-20T10:21:43.695Z,14132.00
2022-10-20T10:22:43.704Z,13408.00
2022-10-20T10:23:43.675Z,12348.00
2022-10-20T10:24:43.667Z,11160.00
2022-10-20T10:25:43.655Z,10432.00
2022-10-20T10:26:43.676Z,9824.00
2022-10-20T10:27:43.634Z,10204.00
2022-10-20T10:28:43.625Z,11188.00
2022-10-20T10:29:43.611Z,11424.00
2022-10-20T10:30:46.878Z,10776.00
2022-10-20T10:31:44.605Z,9180.00
2022-10-20T10:32:43.595Z,7892.00
2022-10-20T10:33:43.569Z,6724.00
2022-10-20T10:34:43.558Z,6088.00
2022-10-20T10:35:43.586Z,5784.00
2022-10-20T10:36:43.536Z,5996.00
2022-10-20T10:37:43.536Z,6748.00
2022-10-20T10:38:43.517Z,6324.00
2022-10-20T10:39:43.496Z,5580.00
2022-10-20T10:40:43.490Z,5224.00
2022-10-20T10:41:43.466Z,4844.00
2022-10-20T10:42:43.474Z,4472.00
2022-10-20T10:43:46.241Z,4736.00
2022-10-20T10:44:44.438Z,4996.00
2022-10-20T10:45:43.437Z,4712.00
2022-10-20T10:47:43.592Z,4864.00
2022-10-20T10:48:43.399Z,5092.00
2022-10-20T10:49:43.407Z,5096.00
2022-10-20T10:50:43.367Z,5104.00
2022-10-20T10:51:43.357Z,5796.00
2022-10-20T10:52:43.348Z,6560.00
2022-10-20T10:53:43.337Z,6684.00
2022-10-20T10:54:43.367Z,6968.00
2022-10-20T10:55:48.674Z,7364.00
2022-10-20T10:56:44.307Z,7144.00
2022-10-20T10:57:43.300Z,6736.00
2022-10-20T10:58:43.292Z,6472.00
2022-10-20T10:59:43.276Z,6308.00
2022-10-20T11:00:43.644Z,6264.00
2022-10-20T11:01:43.248Z,6040.00
2022-10-20T11:02:43.238Z,5424.00
2022-10-20T11:03:43.229Z,4788.00
2022-10-20T11:04:43.218Z,4484.00
2022-10-20T11:05:43.219Z,4340.00
2022-10-20T11:06:43.218Z,4084.00
2022-10-20T11:07:43.177Z,4096.00
2022-10-20T11:08:43.207Z,4196.00
2022-10-20T11:09:43.158Z,4240.00
2022-10-20T11:10:43.148Z,4420.00
2022-10-20T11:11:43.220Z,4580.00
2022-10-20T11:12:43.148Z,4680.00
2022-10-20T11:13:43.120Z,4904.00
2022-10-20T11:14:43.109Z,4888.00
2022-10-20T11:15:43.098Z,4944.00
2022-10-20T11:16:43.079Z,4908.00
2022-10-20T11:17:43.069Z,4904.00
2022-10-20T11:18:43.079Z,4792.00
2022-10-20T11:19:43.049Z,4900.00
2022-10-20T11:20:43.039Z,5216.00
2022-10-20T11:21:43.029Z,5176.00
2022-10-20T11:22:43.016Z,5020.00
2022-10-20T11:23:43.049Z,5008.00
2022-10-20T11:24:42.998Z,5040.00
2022-10-20T11:25:42.989Z,5040.00
2022-10-20T11:26:42.978Z,5100.00
2022-10-20T11:27:42.959Z,5076.00
2022-10-20T11:28:42.950Z,4956.00
2022-10-20T11:29:42.969Z,4804.00
2022-10-20T11:30:42.928Z,4664.00
2022-10-20T11:31:42.910Z,4600.00
2022-10-20T11:32:42.911Z,4584.00
2022-10-20T11:33:42.890Z,4672.00
2022-10-20T11:34:42.900Z,4736.00
2022-10-20T11:35:42.880Z,4672.00
2022-10-20T11:36:42.849Z,4536.00
2022-10-20T11:37:42.850Z,4444.00
2022-10-20T11:38:42.829Z,4452.00
2022-10-20T11:39:42.827Z,4524.00
2022-10-20T11:40:42.830Z,4604.00
2022-10-20T11:42:42.790Z,4496.00
2022-10-20T11:43:42.779Z,4296.00
2022-10-20T11:44:42.768Z,4152.00
2022-10-20T11:45:42.793Z,3984.00
2022-10-20T11:46:42.778Z,3800.00
2022-10-20T11:47:42.740Z,3796.00
2022-10-20T11:48:42.837Z,4004.00
2022-10-20T11:49:42.709Z,4216.00
2022-10-20T11:50:42.700Z,4404.00
2022-10-20T11:51:42.690Z,4516.00
2022-10-20T11:52:42.701Z,4620.00
2022-10-20T11:53:42.672Z,4664.00
2022-10-20T11:54:42.659Z,4512.00
2022-10-20T11:55:42.708Z,4288.00
2022-10-20T11:56:42.631Z,4156.00
2022-10-20T11:57:42.648Z,3964.00
2022-10-20T11:58:42.611Z,3644.00
2022-10-20T11:59:42.601Z,3532.00
2022-10-20T12:00:42.590Z,3680.00
2022-10-20T12:01:42.629Z,3760.00
2022-10-20T12:02:42.573Z,3632.00
2022-10-20T12:03:42.582Z,3596.00
2022-10-20T12:04:42.550Z,3572.00
2022-10-20T12:05:42.550Z,3368.00
2022-10-20T12:06:42.521Z,3356.00
2022-10-20T12:07:42.513Z,3240.00
2022-10-20T12:08:42.511Z,3056.00
2022-10-20T12:09:42.501Z,3036.00
2022-10-20T12:10:42.471Z,2936.00
2022-10-20T12:11:42.469Z,2980.00
2022-10-20T12:12:42.451Z,2964.00
2022-10-20T12:13:42.442Z,2908.00
2022-10-20T12:14:42.451Z,2892.00
2022-10-20T12:15:42.441Z,2920.00
2022-10-20T12:16:42.409Z,2984.00
2022-10-20T12:17:42.405Z,2996.00
2022-10-20T12:18:42.391Z,3020.00
2022-10-20T12:19:42.383Z,3004.00
2022-10-20T12:20:42.500Z,2968.00
2022-10-20T12:21:42.352Z,2924.00
2022-10-20T12:22:42.343Z,2852.00
2022-10-20T12:23:42.331Z,2820.00
2022-10-20T12:24:42.311Z,2892.00
2022-10-20T12:25:42.329Z,3020.00
2022-10-20T12:26:44.614Z,3160.00
2022-10-20T12:27:42.291Z,3236.00
2022-10-20T12:28:42.306Z,3260.00
2022-10-20T12:29:42.273Z,3400.00
2022-10-20T12:30:42.253Z,3488.00
2022-10-20T12:31:42.242Z,3592.00
2022-10-20T12:32:42.251Z,3488.00
2022-10-20T12:33:42.222Z,3608.00
2022-10-20T12:34:42.215Z,3848.00
2022-10-20T12:35:42.213Z,4052.00
2022-10-20T12:36:42.184Z,4236.00
2022-10-20T12:37:44.816Z,4580.00
2022-10-20T12:38:42.192Z,4848.00
2022-10-20T12:39:42.152Z,5000.00
2022-10-20T12:40:42.142Z,4984.00